createdAt,value
2023-03-08T00:02:57.962Z,10.32
2023-03-08T00:07:59.518Z,8.93
2023-03-08T00:13:01.044Z,11.02
2023-03-08T00:18:02.962Z,8.43
2023-03-08T00:23:04.541Z,9.77
2023-03-08T00:28:06.037Z,12.50
2023-03-08T00:33:07.563Z,7.68
2023-03-08T00:38:09.033Z,9.90
2023-03-08T00:43:10.607Z,6.63
2023-03-08T00:48:12.520Z,7.38
2023-03-08T00:53:14.586Z,7.43
2023-03-08T00:58:17.337Z,8.38
2023-03-08T01:03:20.150Z,7.25
2023-03-08T01:08:24.282Z,12.25
2023-03-08T01:13:32.449Z,6.78
2023-03-08T01:18:34.220Z,11.93
2023-03-08T01:23:35.958Z,9.15
2023-03-08T01:28:37.902Z,13.25
2023-03-08T01:33:42.149Z,11.05
2023-03-08T01:38:44.451Z,14.05
2023-03-08T01:43:46.846Z,13.75
2023-03-08T01:49:09.746Z,8.43
2023-03-08T01:54:17.439Z,8.00
2023-03-08T01:59:22.066Z,8.40
2023-03-08T02:04:23.873Z,9.32
2023-03-08T02:09:25.547Z,5.68
2023-03-08T02:14:28.820Z,7.90
2023-03-08T02:19:38.707Z,7.28
2023-03-08T02:24:40.384Z,8.35
2023-03-08T02:29:41.938Z,8.38
2023-03-08T02:34:43.555Z,7.78
2023-03-08T02:39:45.049Z,6.57
2023-03-08T02:44:46.671Z,7.13
2023-03-08T02:49:48.239Z,9.13
2023-03-08T02:54:49.948Z,8.23
2023-03-08T02:59:51.637Z,8.82
2023-03-08T03:04:53.364Z,11.77
2023-03-08T03:09:55.166Z,17.52
2023-03-08T03:14:56.972Z,18.58
2023-03-08T03:19:58.801Z,13.95
2023-03-08T03:25:00.343Z,8.52
2023-03-08T03:30:02.075Z,8.77
2023-03-08T03:35:05.006Z,5.93
2023-03-08T03:40:07.487Z,7.80
2023-03-08T03:45:09.720Z,7.10
2023-03-08T03:50:12.406Z,6.60
2023-03-08T03:55:22.728Z,6.95
2023-03-08T04:00:24.584Z,5.68
2023-03-08T04:05:42.900Z,7.35
2023-03-08T04:10:45.814Z,6.78
2023-03-08T04:15:48.431Z,7.90
2023-03-08T04:20:50.266Z,6.47
2023-03-08T04:25:51.985Z,8.73
2023-03-08T04:30:54.854Z,9.60
2023-03-08T04:35:56.799Z,9.63
2023-03-08T04:41:06.197Z,9.25
2023-03-08T04:46:18.752Z,10.87
2023-03-08T04:51:22.394Z,12.68
2023-03-08T04:56:24.384Z,12.48
2023-03-08T05:01:26.983Z,8.75
2023-03-08T05:06:29.168Z,11.05
2023-03-08T05:11:32.481Z,8.75
2023-03-08T05:16:34.721Z,11.13
2023-03-08T05:21:37.876Z,10.43
2023-03-08T05:26:39.644Z,10.85
2023-03-08T05:31:45.382Z,10.93
2023-03-08T05:36:47.877Z,11.63
2023-03-08T05:41:49.588Z,10.93
2023-03-08T05:46:57.563Z,11.20
2023-03-08T05:51:59.179Z,10.20
2023-03-08T05:57:02.375Z,11.90
2023-03-08T06:02:05.193Z,13.48
2023-03-08T06:07:32.931Z,12.10
2023-03-08T06:17:46.111Z,15.88
2023-03-08T06:22:51.528Z,12.55
2023-03-08T06:27:53.793Z,12.68
2023-03-08T06:33:01.596Z,14.57
2023-03-08T06:38:03.402Z,12.80
2023-03-08T06:43:06.425Z,14.82
2023-03-08T06:48:08.085Z,13.20
2023-03-08T06:53:10.882Z,14.57
2023-03-08T06:58:24.013Z,14.13
2023-03-08T07:03:26.989Z,11.15
2023-03-08T07:08:28.627Z,13.63
2023-03-08T07:13:30.160Z,14.68
2023-03-08T07:18:31.729Z,14.20
2023-03-08T07:23:33.307Z,16.85
2023-03-08T07:28:35.616Z,15.27
2023-03-08T07:33:37.129Z,15.82
2023-03-08T07:38:38.853Z,17.10
2023-03-08T07:43:40.353Z,17.15
2023-03-08T07:48:49.306Z,16.15
2023-03-08T07:53:52.319Z,16.80
2023-03-08T07:58:57.377Z,13.85
2023-03-08T08:04:00.365Z,17.65
2023-03-08T08:09:02.330Z,17.05
2023-03-08T08:14:04.338Z,14.80
2023-03-08T08:19:06.237Z,15.90
2023-03-08T08:24:08.704Z,19.73
2023-03-08T08:29:10.820Z,18.77
2023-03-08T08:34:12.393Z,17.23
2023-03-08T08:39:13.961Z,18.25
2023-03-08T08:44:15.525Z,18.48
2023-03-08T08:49:17.064Z,16.58
2023-03-08T08:54:18.833Z,16.60
2023-03-08T08:59:20.455Z,17.35
2023-03-08T09:04:22.107Z,23.23
2023-03-08T09:09:23.672Z,21.35
2023-03-08T09:14:25.784Z,20.67
2023-03-08T09:19:27.350Z,19.25
2023-03-08T09:24:28.916Z,30.83
2023-03-08T09:29:30.422Z,17.00
2023-03-08T09:34:32.144Z,16.25
2023-03-08T09:39:34.528Z,22.88
2023-03-08T09:45:01.335Z,21.08
2023-03-08T09:50:33.881Z,22.35
2023-03-08T09:55:38.354Z,23.83
2023-03-08T10:00:41.341Z,22.15
2023-03-08T10:06:00.464Z,24.02
2023-03-08T10:11:07.241Z,22.33
2023-03-08T10:16:25.894Z,20.77
2023-03-08T10:21:29.759Z,19.52
2023-03-08T10:26:31.727Z,23.90
2023-03-08T10:31:33.822Z,25.55
2023-03-08T10:36:46.302Z,31.02
2023-03-08T10:42:00.126Z,22.05
2023-03-08T10:47:04.690Z,22.60
2023-03-08T10:52:25.181Z,19.40
2023-03-08T10:57:27.547Z,18.70
2023-03-08T11:02:29.490Z,18.52
2023-03-08T11:07:33.234Z,16.73
2023-03-08T11:12:34.772Z,17.10
2023-03-08T11:17:39.459Z,14.40
2023-03-08T11:23:05.627Z,14.25
2023-03-08T11:28:14.744Z,13.25
2023-03-08T11:33:44.305Z,57.78
2023-03-08T11:39:11.804Z,17.38
2023-03-08T11:44:31.226Z,12.80
2023-03-08T11:49:51.126Z,15.98
2023-03-08T11:55:07.550Z,25.73
2023-03-08T12:00:28.091Z,80.60
2023-03-08T12:05:41.038Z,20.13
2023-03-08T12:10:49.933Z,21.92
2023-03-08T12:16:12.846Z,19.30
2023-03-08T12:21:38.734Z,19.42
2023-03-08T12:26:48.636Z,17.65
2023-03-08T12:31:51.687Z,19.55
2023-03-08T12:36:53.814Z,19.38
2023-03-08T12:42:10.671Z,26.45
2023-03-08T12:47:12.103Z,20.88
2023-03-08T12:52:19.562Z,19.27
2023-03-08T12:57:31.092Z,19.75
2023-03-08T13:02:34.755Z,21.95
2023-03-08T13:07:57.268Z,85.38
2023-03-08T13:13:18.494Z,37.10
2023-03-08T13:18:32.575Z,28.17
2023-03-08T13:23:40.874Z,32.55
2023-03-08T13:33:55.151Z,24.90
2023-03-08T13:39:05.567Z,18.02
2023-03-08T13:44:28.180Z,20.52
2023-03-08T13:49:43.242Z,17.17
2023-03-08T13:54:49.081Z,15.18
2023-03-08T13:59:53.718Z,17.38
2023-03-08T14:04:56.717Z,15.80
2023-03-08T14:09:58.939Z,18.67
2023-03-08T14:15:04.545Z,15.75
2023-03-08T14:20:19.397Z,31.65
2023-03-08T14:25:31.985Z,18.92
2023-03-08T14:30:33.784Z,19.30
2023-03-08T14:35:45.256Z,16.05
2023-03-08T14:40:51.941Z,15.15
2023-03-08T14:46:00.781Z,15.50
2023-03-08T14:51:26.975Z,12.48
2023-03-08T14:56:30.411Z,11.48
2023-03-08T15:01:34.803Z,13.68
2023-03-08T15:06:39.808Z,11.98
2023-03-08T15:11:41.669Z,12.55
2023-03-08T15:16:43.346Z,12.63
2023-03-08T15:21:44.926Z,11.73
2023-03-08T15:26:46.569Z,11.82
2023-03-08T15:31:48.134Z,7.65
2023-03-08T15:36:50.695Z,7.55
2023-03-08T15:41:52.289Z,6.30
2023-03-08T15:46:54.330Z,7.50
2023-03-08T15:51:55.935Z,6.03
2023-03-08T15:56:58.443Z,4.80
2023-03-08T16:02:00.117Z,6.53
2023-03-08T16:07:01.774Z,19.77
2023-03-08T16:12:03.577Z,6.15
2023-03-08T16:17:05.767Z,5.95
2023-03-08T16:22:07.582Z,4.40
2023-03-08T16:27:09.162Z,3.53
2023-03-08T16:32:15.014Z,3.88
2023-03-08T16:37:20.871Z,6.68
2023-03-08T16:42:22.905Z,4.70
2023-03-08T16:47:26.384Z,9.35
2023-03-08T16:52:28.457Z,10.10
2023-03-08T16:57:29.987Z,7.63
2023-03-08T17:02:31.622Z,3.90
2023-03-08T17:07:33.202Z,4.13
2023-03-08T17:12:34.790Z,2.65
2023-03-08T17:17:39.493Z,2.20
2023-03-08T17:22:41.099Z,4.35
2023-03-08T17:27:42.600Z,1.98
2023-03-08T17:32:44.214Z,3.80
2023-03-08T17:37:45.873Z,3.33
2023-03-08T17:42:47.829Z,1.60
2023-03-08T17:47:49.431Z,2.03
2023-03-08T17:52:50.960Z,1.50
2023-03-08T17:57:52.795Z,3.75
2023-03-08T18:02:54.615Z,1.80
2023-03-08T18:07:56.298Z,2.30
2023-03-08T18:12:57.939Z,1.30
2023-03-08T18:17:59.503Z,1.33
2023-03-08T18:23:01.576Z,2.13
2023-03-08T18:28:03.224Z,1.85
2023-03-08T18:33:05.310Z,1.83
2023-03-08T18:38:07.034Z,5.03
2023-03-08T18:43:08.618Z,1.20
2023-03-08T18:48:10.432Z,1.20
2023-03-08T18:53:12.824Z,0.80
2023-03-08T18:58:14.354Z,0.98
2023-03-08T19:03:15.874Z,1.45
2023-03-08T19:08:17.560Z,1.05
2023-03-08T19:13:19.164Z,0.80
2023-03-08T19:18:20.744Z,0.93
2023-03-08T19:23:22.388Z,0.90
2023-03-08T19:28:24.101Z,1.23
2023-03-08T19:33:31.024Z,1.10
2023-03-08T19:38:33.593Z,1.60
2023-03-08T19:43:35.583Z,1.00
2023-03-08T19:48:37.826Z,1.20
2023-03-08T19:53:40.189Z,1.08
2023-03-08T19:58:41.962Z,1.05
2023-03-08T20:03:43.808Z,1.20
2023-03-08T20:08:46.710Z,2.00
2023-03-08T20:13:48.402Z,1.40
2023-03-08T20:18:50.323Z,1.08
2023-03-08T20:23:55.421Z,1.67
2023-03-08T20:28:58.018Z,1.67
2023-03-08T20:33:59.811Z,2.08
2023-03-08T20:39:01.633Z,3.47
2023-03-08T20:44:03.456Z,1.85
2023-03-08T20:49:05.006Z,4.45
2023-03-08T20:54:06.645Z,1.90
2023-03-08T20:59:08.274Z,1.55
2023-03-08T21:04:09.906Z,1.92
2023-03-08T21:09:11.565Z,1.70
2023-03-08T21:14:13.250Z,1.30
2023-03-08T21:19:14.817Z,1.50
2023-03-08T21:24:18.698Z,2.10
2023-03-08T21:29:21.532Z,1.25
2023-03-08T21:34:23.366Z,1.67
2023-03-08T21:39:27.000Z,1.52
2023-03-08T21:44:30.949Z,1.20
2023-03-08T21:49:36.430Z,0.88
2023-03-08T21:54:38.067Z,0.60
2023-03-08T21:59:39.678Z,0.88
2023-03-08T22:04:41.191Z,2.22
2023-03-08T22:09:42.885Z,1.20
2023-03-08T22:14:44.567Z,1.08
2023-03-08T22:19:46.147Z,2.20
2023-03-08T22:24:47.871Z,4.80
2023-03-08T22:29:49.960Z,2.72
2023-03-08T22:34:51.671Z,0.90
2023-03-08T22:39:53.309Z,0.90
2023-03-08T22:44:54.979Z,1.23
2023-03-08T22:49:56.599Z,2.25
2023-03-08T22:54:58.186Z,1.13
2023-03-08T22:59:59.882Z,1.45
2023-03-08T23:05:01.387Z,1.08
2023-03-08T23:10:04.347Z,0.90
2023-03-08T23:15:07.342Z,1.52
2023-03-08T23:20:10.772Z,1.10
2023-03-08T23:25:12.662Z,0.75
2023-03-08T23:30:15.414Z,0.55
2023-03-08T23:35:17.016Z,0.75
2023-03-08T23:40:18.671Z,0.60
2023-03-08T23:45:21.141Z,0.63
2023-03-08T23:50:22.708Z,1.70
2023-03-08T23:55:24.630Z,1.73
